Timeline UpdatesTrip UpdatesNews PostsPvt PostsTravel TipsAdmin PostsConv PostsFollowed PostsChat RequestsBlog PostsPNR Posts

Disclaimer
Search
 
 
Sat Aug 2, 2014 10:02:15 ISTHomeTrainsΣChainsAtlasPNRForumGalleryNewsFAQTripsMembersLoginFeedback
No Recent News for this Train
Other Trains in the News **new
Latest...
-
Tue Feb 11, 2014 (11:47AM)
⇐ Return Journey: Train# 13020

13019/Bagh Express

Mar 23 2014 (4:38PM)
Change Departure Station:
Change Arrival Station:
Post a Train Travel TipPost a Train Travel Tip **new
Post a Comment/Question/Picture/VideoPost a Comment/Question/Picture/Video
Pantry/Catering
✕ NO Pantry Car
✓ Catering Avbl
Loco/Rake Reversals
RMU/Rampur Junction (3); LJN/Lucknow Junction (6);
RSA - Rake Sharing
Rake/Coach Composition
LOCO-SLR-GS-GS-GS-S1-S2-S3-S4-S5-S6-S7-B1-A1-GS-GS-SLR
Loco
HWH WAP-4 (HWH-BJU); IZN WDP-4D (BJU-KGM)
News    PNR    Forum    Time-Table    Availability    Fare Chart    Map    Arr/Dep History    Trips    Gallery    ΣChains    X/O    Timeline    
Travel Time: 35h 45m    65 halts    Distance: 1519 km    Avg Speed: 42 km/hr
Type: Mail/Express
Zone: ER/Eastern
Departs @ 21:45 (Avg 19m late)
Platform# 11
SMTWTFS
Kolkata Howrah Junction/HWH 
Arrives @ 09:30 +2 nights (Avg 1h 38m late)
Platform# 1
SMTWTFS
Kathgodam/KGM 

65 halts. 276 intermediate Stations between Kolkata Howrah Junction and Kathgodam

Show ALL intermediate Stations  Show Old Time-Table

#CodeStation NameX/OArrivesAvgDepartsAvgHaltPFDay#KmSpeedElevZoneAddress
1HWH»Kolkata Howrah Junction (23)»  -21:45+191110.05910mERHowrah 711101, West Bengal
2SRPSerampore (4)X  22:05+2722:06+321m--119.74011mERdist - hooghly, West Bengal
3BDCBandel Junction (7)  22:36+2522:41+255m--139.67914mERdist - HOOGHLY, West Bengal
4BWNBarddhaman Junction (8)X  23:32+3323:37+335m21106.87834mERDist - Barddhaman, West Bengal
5DGRDurgapur (5)  00:26+3200:28+322m32170.47971mERDurgapur, West Bengal
6UDLAndal Junction (6)X  00:41+3500:43+352m--2187.45586mERAndal, West Bengal
7RNGRaniGanj (4)  00:51+3700:53+382m22194.74392mERRaniganj, West Bengal
8ASNAsansol Junction (7)XO  01:18+3001:23+355m--2212.863113mERDist - bardhaman, West Bengal
9CRJChittaranjan (3)X  01:47+4501:48+461m32237.985182mERMihijam, Jharkhand
10MDPMadhupur Junction (4)X  02:28+5702:33+575m--2294.367254mER06432-224478, Jharkhand
11JSMEJasidih Junction (5)X  02:59+1:0103:04+1:025m22323.466271mERJasidih, Jharkhand
12STLSimultala (2)XO  03:27+5903:28+591m--2348.820247mERSimultala, Bihar
13JAJJhajha (4)  04:25+3004:35+3010m--2367.587143mECRJhajha, Bihar
14JMUJamui (3)X  04:53+3904:55+402m--2393.56681mECRState Highway 72, Bihar
15KIULKiul Junction (5)  05:20+4805:25+485m--2420.81453mECRDist. Lakhisarai, Bihar
16LKRLuckeesarai Junction (2)  05:31+4905:33+492m22422.12852mECRLakhisarai, Bihar
17BRYABarhiya (3)XO  06:05+4006:07+412m--2437.22047mECRBarahiya, Bihar
18DKGSDinkar Gram Simaria (3)  06:55+5206:56+551m--2453.62147mECRSimaria Station, Bihar
19BJUBarauni Junction (9)X07:13+4807:33+5320m82459.75249mECRBegusarai, Bihar
20BCABachwara Junction  07:52+1:0207:54+1:042m--2476.03949mECRBegusarai, Bihar
21DSSDalsingh Sarai (2)X  08:11+1:0208:13+1:022m12487.05949mECR06278-221238, Bihar
22NAZJNazirGanj  08:21+1:0108:23+1:022m--2494.95451mECRNazirGanj, Bihar
23UJPUjiarpur (2)X  08:30+5908:32+1:022m--2501.23251mECRSamastipur, Bihar
24SPJSamastipur Junction (9)X  08:49+1:0508:55+1:066m92510.23455mECRSamastipur, Bihar
25KPGMKarpurigram (3)  09:06+1:1309:08+1:132m--2516.56351mECRState Highway 49, Bihar
26KRBPKhudiram B Pusa  09:15+1:1509:17+1:162m--2523.86752mECRDistt. Samastipur, Bihar
27DOLDholi (2)X  09:29+1:2009:31+1:212m--2537.25252mECRDistt. Muzaffarpur, Bihar
28MFPMuzaffarpur Junction (6)X  10:00+1:3210:10+1:3810m42562.36557mECRMuzaffarpur, Bihar
29GRLGoraul (2)  10:34+2:0210:36+2:052m22588.26257mECRVAISHALI, Bihar
30BNRBhagwanpur (2)  10:44+2:0710:46+2:142m22596.54960mECRBhagwanpur, Bihar
31HJPHajipur Junction (3)X  11:10+2:2011:15+2:315m--2616.23355mECR06224-272230, Bihar
32SEESonpur Junction (4)  11:25+2:3311:35+2:3010m--2621.75756mECRSaran, Bihar
33NYONayagaon (2)  11:47+2:3211:49+2:352m--2633.05553mECRNayagaon Sarai, Bihar
34DGADighwara (2)XO  12:02+2:3712:04+2:402m--2644.83060mECR06158-281240, Bihar
35CPRChhapra Junction (6)X  13:05+2:3413:15+2:3510m142675.76858mNERDistt: Saran, Bihar
36DDPDaudpur (2)  13:32+2:4113:34+2:422m--2695.05759mNERChhapra, Bihar
37EKMAEkma (3)  13:43+2:4313:45+2:442m--2703.64464mNERSaran, Bihar
38CWChainwa (2)X  13:55+2:4513:57+2:462m--2711.04963mNERSiwan, Bihar
39DDADuraundha Junction (3)O  14:07+2:4614:09+2:472m12719.23064mNERDistt: Siwan, Bihar
40SVSiwan Junction (4)X  14:45+2:3414:50+2:355m--2737.07770mNERSiwan, Bihar
41ZRDEJiradei (2)X  14:58+2:4015:00+2:412m--2747.36069mNERSiwan, Bihar
42MWMairwa (2)X  15:11+2:3815:13+2:382m--2758.24973mNERMairwa, Bihar
43BTKBankata (2)  15:21+2:4315:23+2:432m--2764.75473mNERDeoria, Uttar Pradesh
44BHTRBhatpar Rani (2)  15:32+2:4315:34+2:442m--2772.84873mNERDeoria, Uttar Pradesh
45BTTBhatni Junction (5)X  15:50+2:4315:55+2:435m--2785.76973mNERDeoria, Uttar Pradesh
46DEOSDeoria Sadar (3)X  16:13+2:4716:15+2:502m22806.44479mNERDeoria- 274001, Uttar Pradesh
47CCChauri Chaura (2)  16:49+2:4616:51+2:462m--2831.23084mNERGorakhpur- PinCode:- 273201, Uttar Pradesh
48GKPGorakhpur Junction (10)X  17:40+2:5318:00+2:5820m22855.65784mNERGorakhpur 273001, Uttar Pradesh
49KLDKhalilabad (3)X  18:36+3:0618:38+3:062m--2889.56686mNERKhalilabad- 272175, Uttar Pradesh
50BSTBasti (4)X  19:05+3:0619:10+3:085m12919.07190mNERBasti 272001, Uttar Pradesh
51GDGonda Junction (3)X  20:25+3:0920:35+3:0610m121007.579110mNERGonda 271001, Uttar Pradesh
52JLDJarwal Road (2)  21:10+3:1721:12+3:172m121053.654112mNERBehraich, Uttar Pradesh
53BBKBarabanki Junction (4)XO  22:00+3:1822:02+3:192m221096.840122mNRPin-225001, Uttar Pradesh
54BNZBadshahnagar (2)  22:39+3:1622:40+3:171m121121.411116mNERLucknow, Uttar Pradesh
55LCLucknow City (3)X  23:15-23:17-2m121127.76127mNERLucknow, Uttar Pradesh
56LJNLucknow Junction (6)X00:01+2:2000:25+2:2424m131132.467126mNERLucknow, Uttar Pradesh
57HRIHardoi (5)X01:56+2:4901:58+2:502m--31233.567146mNRHardoi, Uttar Pradesh
58ROZARoza Junction (4)X  02:48+2:4102:50+2:522m--31289.124156mNRShahjahanpur, Uttar Pradesh
59SPNShahjahanpur Junction (3)X  03:08+2:4803:13+2:485m--31296.472156mNRShahjahanpur, Uttar Pradesh
60BEBareilly Junction (4)X  04:12+2:5304:20+2:578m231366.950174mNRBareilly, Uttar Pradesh
61RMURampur Junction (3)05:35+2:3306:00+2:2625m131430.062190mNRRampur, Uttar Pradesh
62BLQRBilaspur Road (1)  06:26+2:4506:27+2:461m131456.851196mNERRampur, Uttar Pradesh
63RUPCRudrapur City (2)  06:48+2:4206:53+2:425m131474.824208mNERUdham Singh Nagar, Uttarakhand
64HLDDHaldi Road  07:28+2:2307:30+2:252m--31488.913236mNERNH 87, Uttarakhand
65LKULal Kuan Junction (4)X  08:05+2:0708:10+2:175m131496.519262mNERLalkuan, Uttarakhand
66HDWHaldwani (3)  09:01+1:5509:03+1:592m131512.913443mNERHaldwani, Uttarakhand
67KGM•Kathgodam (3)•  09:30+1:38-131518.7-520mNERKathgodam, Uttarakhand
Scroll to Top
Scroll to Bottom